Time;durP1;ratioP1;P1;durP2;ratioP2;P2;SDS_P1;SDS_P2;PMS_P1;PMS_P2;Temp;Humidity;BMP_temperature;BMP_pressure;BME280_temperature;BME280_humidity;BME280_pressure;Samples;Min_cycle;Max_cycle;Signal;HPM_P1;HPM_P2
2021/05/08 00:01:07;;;;;;;3.60;2.90;;;;;;;6.04;39.61;101427.34;7979312;28;20065;-65
2021/05/08 00:05:00;;;;;;;5.13;3.35;;;;;;;5.94;39.79;101405.97;7980234;28;20040;-65
2021/05/08 00:08:52;;;;;;;6.05;3.50;;;;;;;5.94;39.59;101421.63;7979762;28;20063;-65
2021/05/08 00:12:47;;;;;;;6.20;4.10;;;;;;;5.90;40.01;101417.44;7977764;28;20376;-65
2021/05/08 00:16:38;;;;;;;6.60;3.22;;;;;;;5.85;39.87;101413.31;7977873;28;20046;-65
2021/05/08 00:20:33;;;;;;;3.50;2.85;;;;;;;5.78;39.93;101417.06;7975562;28;20445;-65
2021/05/08 00:24:28;;;;;;;5.38;3.03;;;;;;;5.75;39.97;101410.22;7985382;28;20112;-65
2021/05/08 00:28:20;;;;;;;5.75;3.10;;;;;;;5.65;40.02;101414.91;7982082;28;20069;-65
2021/05/08 00:32:12;;;;;;;5.50;3.20;;;;;;;5.65;40.19;101427.09;7979189;28;20523;-65
2021/05/08 00:36:06;;;;;;;6.82;3.88;;;;;;;5.60;40.12;101409.00;7979408;28;20529;-65
2021/05/08 00:39:58;;;;;;;4.65;2.95;;;;;;;5.56;40.26;101414.38;7978020;28;20396;-65
2021/05/08 00:43:57;;;;;;;4.70;2.85;;;;;;;5.50;40.55;101404.19;7986401;28;20613;-65
2021/05/08 00:47:59;;;;;;;5.38;3.05;;;;;;;5.48;40.47;101408.59;7977952;28;20034;-65
2021/05/08 00:51:51;;;;;;;5.25;3.28;;;;;;;5.44;40.32;101404.41;7985342;28;20786;-65
2021/05/08 00:55:43;;;;;;;5.28;3.08;;;;;;;5.40;40.56;101411.50;7998247;28;20030;-65
2021/05/08 00:59:36;;;;;;;5.57;2.83;;;;;;;5.37;40.37;101403.78;7982458;28;20486;-65
2021/05/08 01:03:31;;;;;;;5.38;3.30;;;;;;;5.33;40.55;101402.19;7980477;28;20493;-65
2021/05/08 01:07:24;;;;;;;9.70;3.35;;;;;;;5.28;40.49;101390.22;7976773;28;20390;-65
2021/05/08 01:11:17;;;;;;;5.03;3.28;;;;;;;5.23;40.73;101389.56;7986294;28;20056;-65
2021/05/08 01:15:13;;;;;;;5.30;3.33;;;;;;;5.19;40.71;101392.25;7978873;28;20056;-65
2021/05/08 01:19:07;;;;;;;6.25;3.85;;;;;;;5.15;40.68;101385.47;7979857;28;22108;-65
2021/05/08 01:23:00;;;;;;;8.20;3.63;;;;;;;5.10;40.73;101381.31;7991513;28;20486;-65
2021/05/08 01:26:53;;;;;;;6.40;3.53;;;;;;;5.02;40.74;101373.75;7972800;28;20404;-65
2021/05/08 01:30:46;;;;;;;4.72;3.33;;;;;;;4.96;40.86;101360.09;7975742;28;20041;-66
2021/05/08 01:34:41;;;;;;;4.82;3.20;;;;;;;4.94;40.97;101354.94;7983308;28;20053;-66
2021/05/08 01:38:37;;;;;;;7.38;3.65;;;;;;;4.90;41.04;101352.47;7980788;28;20025;-65
2021/05/08 01:42:30;;;;;;;4.20;3.10;;;;;;;4.86;41.01;101359.56;7981755;28;20123;-65
2021/05/08 01:46:26;;;;;;;5.80;3.17;;;;;;;4.83;41.03;101362.28;7979862;28;20120;-65
2021/05/08 01:50:22;;;;;;;4.93;3.33;;;;;;;4.74;41.14;101347.81;7980121;28;20065;-66
2021/05/08 01:54:22;;;;;;;6.43;3.70;;;;;;;4.70;41.04;101343.63;7978107;28;20034;-67
2021/05/08 01:58:15;;;;;;;4.25;3.08;;;;;;;4.67;41.20;101342.88;7977366;28;20068;-67
2021/05/08 02:02:12;;;;;;;5.70;3.07;;;;;;;4.61;41.14;101343.06;7984315;28;20195;-68
2021/05/08 02:06:10;;;;;;;6.05;3.10;;;;;;;4.57;41.32;101331.91;7979003;28;20041;-67
2021/05/08 02:10:17;;;;;;;5.78;3.15;;;;;;;4.51;41.29;101329.53;7985851;28;20079;-67
2021/05/08 02:14:10;;;;;;;4.82;3.22;;;;;;;4.50;41.40;101333.03;7985209;28;20033;-67
2021/05/08 02:18:04;;;;;;;6.43;3.28;;;;;;;4.49;41.54;101325.28;7979560;28;20053;-67
2021/05/08 02:22:01;;;;;;;6.18;2.90;;;;;;;4.43;41.68;101320.28;7963344;28;20049;-67
2021/05/08 02:25:55;;;;;;;3.60;2.70;;;;;;;4.39;41.49;101319.56;7977629;28;20064;-67
2021/05/08 02:29:47;;;;;;;6.85;3.28;;;;;;;4.33;41.61;101309.34;7978923;28;20033;-67
2021/05/08 02:33:48;;;;;;;4.47;3.43;;;;;;;4.31;41.41;101299.91;7976985;28;20046;-67
2021/05/08 02:37:45;;;;;;;;;;;;;;;4.24;41.46;101315.69;7972794;28;20037;-68
2021/05/08 02:41:37;;;;;;;5.93;3.45;;;;;;;4.25;41.62;101300.94;7984461;28;19919;-67
2021/05/08 02:45:32;;;;;;;4.13;3.03;;;;;;;4.24;41.74;101312.22;7974640;28;20604;-67
2021/05/08 02:49:28;;;;;;;7.20;3.42;;;;;;;4.23;41.78;101313.97;7980654;28;20032;-67
2021/05/08 02:53:19;;;;;;;4.88;3.22;;;;;;;4.22;41.67;101311.44;7981738;28;20090;-67
2021/05/08 02:57:15;;;;;;;7.20;3.25;;;;;;;4.19;41.98;101304.56;7984830;28;20046;-67
2021/05/08 03:01:12;;;;;;;4.20;3.00;;;;;;;4.16;42.15;101296.88;7987841;28;20041;-68
2021/05/08 03:05:05;;;;;;;6.97;3.63;;;;;;;4.16;42.04;101302.09;7979574;28;20045;-67
2021/05/08 03:08:57;;;;;;;3.75;3.00;;;;;;;4.12;42.00;101295.28;7974886;28;20038;-67
2021/05/08 03:12:51;;;;;;;5.80;3.10;;;;;;;4.11;42.06;101300.56;7978268;28;20075;-67
2021/05/08 03:16:46;;;;;;;8.27;4.22;;;;;;;4.11;42.38;101292.75;7973874;28;20409;-68
2021/05/08 03:20:37;;;;;;;5.13;3.05;;;;;;;4.10;42.42;101285.84;7976889;28;20048;-67
2021/05/08 03:24:29;;;;;;;5.22;3.05;;;;;;;4.08;42.63;101292.84;7978045;28;20037;-67
2021/05/08 03:28:24;;;;;;;7.55;3.10;;;;;;;4.05;42.22;101282.53;7974581;28;20037;-67
2021/05/08 03:32:18;;;;;;;6.22;3.20;;;;;;;4.02;42.41;101280.03;7979105;28;20046;-67
2021/05/08 03:36:13;;;;;;;4.70;3.45;;;;;;;4.03;42.45;101274.78;7981415;28;20091;-67
2021/05/08 03:40:06;;;;;;;4.70;3.00;;;;;;;4.04;42.71;101279.09;7981615;28;20028;-67
2021/05/08 03:43:57;;;;;;;6.47;3.28;;;;;;;4.03;43.10;101266.97;7975395;28;20025;-67
2021/05/08 03:47:49;;;;;;;8.88;4.13;;;;;;;4.07;43.10;101272.97;7978343;28;20075;-67
2021/05/08 03:51:52;;;;;;;6.85;3.17;;;;;;;4.08;43.00;101269.44;7979192;28;20072;-65
2021/05/08 03:55:44;;;;;;;5.13;3.60;;;;;;;4.08;43.16;101264.22;7973560;28;20045;-65
2021/05/08 03:59:35;;;;;;;5.50;3.72;;;;;;;4.07;43.16;101268.56;7975397;28;20124;-65
2021/05/08 04:03:27;;;;;;;7.47;3.70;;;;;;;4.05;43.44;101256.53;7975806;28;20512;-67
2021/05/08 04:07:18;;;;;;;6.28;4.68;;;;;;;4.06;43.18;101268.66;7975672;28;20076;-67
2021/05/08 04:11:10;;;;;;;8.07;4.40;;;;;;;4.04;43.26;101257.44;7980784;28;20037;-67
2021/05/08 04:15:06;;;;;;;6.28;3.63;;;;;;;4.01;43.55;101249.75;7974539;28;20542;-67
2021/05/08 04:18:59;;;;;;;7.22;3.55;;;;;;;3.99;43.49;101256.72;7986757;28;20806;-67
2021/05/08 04:22:53;;;;;;;6.28;3.53;;;;;;;3.91;43.15;101243.13;7980667;28;20541;-67
2021/05/08 04:26:45;;;;;;;7.60;3.78;;;;;;;3.97;43.27;101251.59;7973395;28;20045;-67
2021/05/08 04:30:38;;;;;;;6.25;3.65;;;;;;;3.98;43.32;101257.66;7978435;28;20128;-67
2021/05/08 04:34:30;;;;;;;4.95;3.90;;;;;;;4.00;43.62;101253.25;7978454;28;20041;-67
2021/05/08 04:38:25;;;;;;;4.28;3.42;;;;;;;4.02;43.89;101264.44;7974417;28;20041;-67
2021/05/08 04:42:19;;;;;;;6.57;4.05;;;;;;;4.06;43.83;101259.09;7977094;28;20116;-67
2021/05/08 04:46:13;;;;;;;5.10;3.70;;;;;;;4.22;43.86;101262.91;7973149;28;20103;-67
2021/05/08 04:50:05;;;;;;;8.10;4.03;;;;;;;4.38;43.67;101250.22;7975934;28;20131;-67
2021/05/08 04:53:56;;;;;;;6.43;3.30;;;;;;;4.61;43.73;101258.06;7973247;28;20482;-67
2021/05/08 04:57:48;;;;;;;6.25;3.50;;;;;;;4.87;43.55;101261.47;7974817;28;20042;-67
2021/05/08 05:01:40;;;;;;;7.10;3.80;;;;;;;5.24;43.89;101256.66;7979485;28;20041;-66
2021/05/08 05:05:31;;;;;;;5.22;3.58;;;;;;;5.69;44.02;101255.78;7981098;28;20029;-66
2021/05/08 05:09:27;;;;;;;5.25;3.72;;;;;;;6.26;44.15;101247.34;7987542;28;20037;-67
2021/05/08 05:13:21;;;;;;;5.18;3.40;;;;;;;6.74;44.00;101244.41;7970508;28;20497;-67
2021/05/08 05:17:13;;;;;;;4.10;3.13;;;;;;;6.94;43.53;101254.81;7976523;28;20084;-67
2021/05/08 05:21:05;;;;;;;7.20;3.30;;;;;;;7.01;43.37;101244.03;7978131;28;20040;-64
2021/05/08 05:25:00;;;;;;;5.78;3.30;;;;;;;7.06;43.19;101238.59;7988381;28;20053;-65
2021/05/08 05:28:51;;;;;;;4.55;2.83;;;;;;;7.17;43.14;101248.56;7980990;28;20104;-65
2021/05/08 05:32:42;;;;;;;7.40;3.45;;;;;;;7.26;43.13;101245.50;7979944;28;20049;-65
2021/05/08 05:36:33;;;;;;;4.97;3.08;;;;;;;7.33;43.00;101249.56;7975641;28;20091;-65
2021/05/08 05:40:27;;;;;;;4.22;2.83;;;;;;;7.32;42.86;101251.31;7985482;28;20037;-65
2021/05/08 05:44:18;;;;;;;9.55;3.33;;;;;;;7.35;42.98;101251.16;7985767;28;20032;-65
2021/05/08 05:48:09;;;;;;;4.70;2.95;;;;;;;7.50;42.88;101245.19;7985440;28;20291;-65
2021/05/08 05:52:01;;;;;;;4.22;2.85;;;;;;;7.68;42.97;101248.72;7984538;28;20110;-66
2021/05/08 05:55:52;;;;;;;4.35;2.67;;;;;;;7.82;43.14;101248.91;7982894;28;20030;-64
2021/05/08 05:59:45;;;;;;;4.70;3.38;;;;;;;7.90;43.15;101238.06;7975226;28;20083;-64
2021/05/08 06:03:36;;;;;;;7.47;3.35;;;;;;;7.93;43.16;101243.16;7980109;28;20041;-65
2021/05/08 06:07:30;;;;;;;9.07;3.60;;;;;;;7.91;42.82;101243.25;7981902;28;20405;-65
2021/05/08 06:11:23;;;;;;;4.57;3.10;;;;;;;7.87;42.79;101233.84;7982755;28;20044;-65
2021/05/08 06:15:15;;;;;;;5.93;3.58;;;;;;;7.85;42.97;101255.75;7977165;28;20061;-65
2021/05/08 06:19:06;;;;;;;7.28;3.20;;;;;;;7.86;43.13;101252.22;7977725;28;20029;-65
2021/05/08 06:22:57;;;;;;;4.68;3.47;;;;;;;7.93;43.04;101245.75;7984485;28;20037;-65
2021/05/08 06:26:49;;;;;;;5.22;3.20;;;;;;;8.06;43.27;101256.47;7984017;28;20051;-65
2021/05/08 06:30:42;;;;;;;3.55;2.53;;;;;;;8.19;43.42;101249.75;7981367;28;20049;-64
2021/05/08 06:34:33;;;;;;;6.47;3.00;;;;;;;8.24;43.28;101250.38;7981423;28;20048;-65
2021/05/08 06:38:24;;;;;;;3.67;3.00;;;;;;;8.18;43.02;101254.13;7980457;28;20029;-65
2021/05/08 06:42:16;;;;;;;6.05;2.55;;;;;;;8.10;43.31;101245.81;7981719;28;20041;-65
2021/05/08 06:46:08;;;;;;;4.93;3.05;;;;;;;8.05;43.43;101244.31;7979489;28;20034;-65
2021/05/08 06:50:00;;;;;;;5.85;2.78;;;;;;;8.11;43.38;101249.28;7976884;28;20029;-65
2021/05/08 06:53:51;;;;;;;4.28;2.75;;;;;;;8.36;43.15;101234.88;7968281;28;20025;-65
2021/05/08 06:57:42;;;;;;;6.97;3.15;;;;;;;8.54;43.36;101229.63;7974490;28;20044;-65
2021/05/08 07:01:35;;;;;;;4.80;2.72;;;;;;;8.61;43.30;101231.00;7972167;28;20047;-65
2021/05/08 07:05:29;;;;;;;4.43;2.80;;;;;;;8.59;43.36;101235.47;7976993;28;20041;-69
2021/05/08 07:09:23;;;;;;;3.45;2.50;;;;;;;8.56;43.09;101231.25;7976203;28;20036;-65
2021/05/08 07:13:15;;;;;;;3.60;2.70;;;;;;;8.54;43.47;101227.84;7972593;28;20060;-65
2021/05/08 07:17:10;;;;;;;6.03;2.55;;;;;;;8.53;43.56;101214.84;7973570;28;20052;-66
2021/05/08 07:21:01;;;;;;;4.05;2.65;;;;;;;8.54;43.17;101221.78;7977542;28;20045;-67
2021/05/08 07:24:56;;;;;;;3.20;2.60;;;;;;;8.58;43.23;101213.66;7974866;28;20037;-67
2021/05/08 07:28:48;;;;;;;3.20;2.50;;;;;;;8.65;43.70;101214.19;7973879;28;20049;-67
2021/05/08 07:32:44;;;;;;;7.97;3.13;;;;;;;8.73;43.62;101202.41;7972710;28;20037;-67
2021/05/08 07:36:41;;;;;;;4.90;2.85;;;;;;;8.87;43.50;101207.72;7973968;28;20052;-65
2021/05/08 07:40:34;;;;;;;4.30;2.70;;;;;;;9.00;43.81;101194.81;7974474;28;20032;-64
2021/05/08 07:44:27;;;;;;;4.45;2.90;;;;;;;9.19;43.70;101203.38;7972778;28;20033;-65
2021/05/08 07:48:20;;;;;;;4.85;3.03;;;;;;;9.33;43.50;101194.72;7970785;28;20457;-64
2021/05/08 07:52:13;;;;;;;6.10;3.05;;;;;;;9.52;43.76;101191.97;7975472;28;20115;-65
2021/05/08 07:56:10;;;;;;;11.40;3.03;;;;;;;9.69;43.56;101176.97;7976531;28;20030;-65
2021/05/08 08:00:07;;;;;;;4.22;2.63;;;;;;;9.96;43.50;101187.63;7973741;28;20041;-66
2021/05/08 08:04:00;;;;;;;4.93;2.25;;;;;;;10.18;43.20;101180.19;7973424;28;20049;-64
2021/05/08 08:07:52;;;;;;;3.65;2.03;;;;;;;10.38;43.12;101183.41;7973168;28;20065;-64
2021/05/08 08:11:44;;;;;;;3.88;2.30;;;;;;;10.54;43.02;101174.53;7967205;28;20124;-65
2021/05/08 08:15:36;;;;;;;3.30;2.30;;;;;;;10.65;42.81;101176.50;7971892;28;20056;-65
2021/05/08 08:19:28;;;;;;;4.18;2.78;;;;;;;10.75;43.00;101168.88;7973807;28;20159;-64
2021/05/08 08:23:23;;;;;;;4.75;2.47;;;;;;;10.85;42.87;101160.34;7970056;28;20029;-64
2021/05/08 08:27:15;;;;;;;4.55;2.90;;;;;;;11.06;42.75;101160.78;7972052;28;20108;-65
2021/05/08 08:31:10;;;;;;;3.63;2.60;;;;;;;11.39;42.76;101158.63;7975052;28;20147;-65
2021/05/08 08:35:02;;;;;;;5.50;2.47;;;;;;;11.78;42.82;101143.81;7973487;28;20065;-65
2021/05/08 08:38:54;;;;;;;6.95;2.28;;;;;;;12.13;42.49;101138.81;7976308;28;20029;-65
2021/05/08 08:42:46;;;;;;;3.40;2.03;;;;;;;12.32;42.11;101134.78;7976177;28;20041;-64
2021/05/08 08:46:41;;;;;;;3.30;1.83;;;;;;;12.40;41.91;101129.00;7982747;28;20041;-65
2021/05/08 08:50:37;;;;;;;4.47;2.17;;;;;;;12.46;41.52;101124.16;7979855;28;20529;-64
2021/05/08 08:54:28;;;;;;;4.93;1.80;;;;;;;12.51;41.66;101114.13;7992601;28;20048;-65
2021/05/08 08:58:35;;;;;;;3.60;1.90;;;;;;;12.58;41.51;101111.09;7979168;28;20554;-65
2021/05/08 09:02:28;;;;;;;3.45;2.20;;;;;;;12.81;41.39;101110.28;7979045;28;20037;-64
2021/05/08 09:06:20;;;;;;;4.20;2.40;;;;;;;13.07;41.49;101098.72;7980511;28;20405;-65
2021/05/08 09:10:24;;;;;;;4.95;2.13;;;;;;;13.37;41.21;101093.81;7982229;28;20128;-65
2021/05/08 09:14:23;;;;;;;7.57;2.42;;;;;;;13.69;41.09;101094.06;7978753;28;20052;-66
2021/05/08 09:18:44;;;;;;;3.25;1.70;;;;;;;13.92;41.04;101065.09;7972035;28;20410;-65
2021/05/08 09:22:38;;;;;;;4.57;1.70;;;;;;;14.25;40.63;101076.53;7967896;28;20052;-65
2021/05/08 09:26:38;;;;;;;3.65;1.65;;;;;;;14.44;40.32;101065.38;7974395;28;20033;-64
2021/05/08 09:30:30;;;;;;;2.95;1.70;;;;;;;14.63;40.08;101068.22;7980048;28;20064;-64
2021/05/08 09:34:23;;;;;;;6.47;1.77;;;;;;;14.81;39.72;101057.97;7974129;28;20025;-65
2021/05/08 09:38:16;;;;;;;4.90;2.00;;;;;;;14.93;39.53;101048.19;7966550;28;20120;-66
2021/05/08 09:42:11;;;;;;;7.82;3.00;;;;;;;15.03;39.42;101049.97;7979167;28;20029;-65
2021/05/08 09:46:04;;;;;;;7.13;2.10;;;;;;;15.14;38.99;101043.78;7971004;28;20045;-66
2021/05/08 09:49:59;;;;;;;2.22;1.73;;;;;;;15.21;38.82;101035.22;7999932;28;20045;-66
2021/05/08 09:54:03;;;;;;;4.70;2.10;;;;;;;15.24;38.40;101026.19;7971957;28;20064;-64
2021/05/08 09:58:06;;;;;;;5.05;2.10;;;;;;;15.23;38.26;101017.41;7979386;28;20040;-65
2021/05/08 10:02:05;;;;;;;2.38;1.80;;;;;;;15.23;37.80;101012.13;7969253;28;20053;-64
2021/05/08 10:05:57;;;;;;;3.08;2.10;;;;;;;15.22;37.78;101018.38;7969483;28;20048;-66
2021/05/08 10:09:53;;;;;;;3.10;1.80;;;;;;;15.19;37.45;101012.50;7975152;28;20052;-65
2021/05/08 10:13:45;;;;;;;2.38;1.75;;;;;;;15.18;37.71;101005.53;7972482;28;20068;-65
2021/05/08 10:17:40;;;;;;;3.95;1.83;;;;;;;15.17;37.46;101002.03;7975524;28;20045;-66
2021/05/08 10:21:36;;;;;;;3.85;1.80;;;;;;;15.16;37.28;101000.38;7975775;28;20051;-66
2021/05/08 10:25:27;;;;;;;3.45;1.88;;;;;;;15.13;37.07;100995.31;7973162;28;20039;-66
2021/05/08 10:29:19;;;;;;;2.60;1.63;;;;;;;15.12;37.02;100988.38;7988272;28;20076;-65
2021/05/08 10:33:16;;;;;;;2.20;1.52;;;;;;;15.18;36.79;100979.91;7974746;28;20041;-66
2021/05/08 10:37:10;;;;;;;1.75;1.20;;;;;;;15.25;36.94;100982.88;7972643;28;20049;-65
2021/05/08 10:41:04;;;;;;;3.03;1.60;;;;;;;15.33;37.05;100988.41;7974758;28;20037;-65
2021/05/08 10:45:00;;;;;;;3.13;1.52;;;;;;;15.36;36.81;100985.50;7976112;28;20040;-65
2021/05/08 10:49:24;;;;;;;2.10;1.40;;;;;;;15.27;36.76;100975.66;7973542;28;20045;-65
2021/05/08 10:53:18;;;;;;;2.17;1.30;;;;;;;15.31;36.34;100976.25;7939364;28;20037;-66
2021/05/08 10:57:18;;;;;;;3.05;1.77;;;;;;;15.28;36.15;100966.75;7978159;28;20037;-65
2021/05/08 11:01:12;;;;;;;2.97;1.25;;;;;;;15.27;36.03;100962.41;7979901;28;20060;-65
2021/05/08 11:05:31;;;;;;;5.03;1.60;;;;;;;15.25;36.18;100954.59;7976292;28;20065;-66
2021/05/08 11:09:31;;;;;;;5.80;1.30;;;;;;;15.32;36.25;100948.84;7975035;28;20730;-66
2021/05/08 11:13:28;;;;;;;2.17;1.20;;;;;;;15.36;35.87;100940.50;7976491;28;20094;-66
2021/05/08 11:17:20;;;;;;;1.67;1.10;;;;;;;15.42;36.15;100955.00;7974964;28;20083;-65
2021/05/08 11:21:12;;;;;;;2.10;1.13;;;;;;;15.40;36.04;100939.28;7976068;28;20111;-66
2021/05/08 11:25:32;;;;;;;3.03;0.82;;;;;;;15.35;36.32;100952.06;7971174;28;20045;-65
2021/05/08 11:29:25;;;;;;;1.08;0.80;;;;;;;15.32;35.97;100938.25;7979141;28;20087;-67
2021/05/08 11:33:26;;;;;;;1.50;1.00;;;;;;;15.29;35.94;100931.41;7978211;28;20040;-69
2021/05/08 11:37:21;;;;;;;1.15;0.80;;;;;;;15.25;36.23;100930.78;7973043;28;20034;-65
2021/05/08 11:41:24;;;;;;;1.23;0.90;;;;;;;15.23;36.45;100932.72;7976197;28;20042;-65
2021/05/08 11:45:16;;;;;;;1.95;0.90;;;;;;;15.18;36.38;100926.13;7975359;28;20042;-66
2021/05/08 11:49:09;;;;;;;2.33;1.00;;;;;;;15.12;36.49;100924.03;7983390;28;20100;-64
2021/05/08 11:53:01;;;;;;;0.57;0.57;;;;;;;15.05;36.57;100914.91;7972444;28;20120;-66
2021/05/08 11:56:54;;;;;;;0.80;0.75;;;;;;;14.95;36.82;100904.28;7971866;28;20045;-65
2021/05/08 12:00:47;;;;;;;3.65;0.93;;;;;;;14.87;36.74;100895.31;7974245;28;20049;-66
2021/05/08 12:04:56;;;;;;;2.70;0.82;;;;;;;14.76;37.08;100881.16;7973998;28;20052;-66
2021/05/08 12:08:48;;;;;;;2.90;1.08;;;;;;;14.71;37.07;100887.81;7976468;28;20052;-65
2021/05/08 12:13:00;;;;;;;2.05;0.80;;;;;;;14.61;37.05;100878.97;7978950;28;20037;-65
2021/05/08 12:16:52;;;;;;;2.67;0.80;;;;;;;14.54;36.99;100873.34;7973852;28;20045;-65
2021/05/08 12:20:50;;;;;;;3.70;0.93;;;;;;;14.54;37.13;100862.78;7974115;28;20064;-65
2021/05/08 12:24:42;;;;;;;1.42;0.70;;;;;;;14.50;37.32;100847.31;7970313;28;20064;-66
2021/05/08 12:28:36;;;;;;;0.95;0.77;;;;;;;14.49;37.13;100841.16;7979249;28;20044;-65
2021/05/08 12:32:32;;;;;;;1.15;0.90;;;;;;;14.48;37.51;100836.00;7972194;28;21590;-64
2021/05/08 12:36:25;;;;;;;0.70;0.70;;;;;;;14.45;37.06;100834.47;7974317;28;20049;-65
2021/05/08 12:40:30;;;;;;;1.10;1.00;;;;;;;14.34;37.14;100816.81;7970401;28;20040;-66
2021/05/08 12:44:37;;;;;;;1.30;1.02;;;;;;;14.31;37.22;100808.28;7971204;28;20474;-65
2021/05/08 12:48:36;;;;;;;2.00;0.80;;;;;;;14.29;37.34;100804.97;7973879;28;20038;-65
2021/05/08 12:52:28;;;;;;;1.58;1.10;;;;;;;14.25;37.11;100801.72;7973947;28;20041;-65
2021/05/08 12:56:28;;;;;;;4.07;1.10;;;;;;;14.19;37.30;100790.81;7971175;28;20049;-65
2021/05/08 13:00:21;;;;;;;1.15;0.90;;;;;;;14.19;37.17;100790.81;7972130;28;20067;-66
2021/05/08 13:04:20;;;;;;;2.28;1.00;;;;;;;14.15;37.06;100777.03;7975029;28;20545;-65
2021/05/08 13:08:12;;;;;;;1.10;1.00;;;;;;;14.14;37.29;100761.28;7972803;28;20091;-65
2021/05/08 13:12:13;;;;;;;1.63;0.95;;;;;;;14.12;37.07;100740.31;7970995;28;20044;-65
2021/05/08 13:16:05;;;;;;;6.90;2.15;;;;;;;14.19;37.24;100727.41;7967000;28;20580;-65
2021/05/08 13:20:00;;;;;;;2.63;1.20;;;;;;;14.25;37.34;100724.28;7972367;28;20048;-65
2021/05/08 13:23:54;;;;;;;1.10;1.00;;;;;;;14.35;37.32;100717.22;7974368;28;20028;-65
2021/05/08 13:27:48;;;;;;;2.75;0.93;;;;;;;14.46;37.05;100706.63;7974511;28;20100;-64
2021/05/08 13:31:42;;;;;;;4.40;1.50;;;;;;;14.55;36.95;100692.63;7974674;28;20055;-64
2021/05/08 13:35:34;;;;;;;3.28;1.30;;;;;;;14.68;36.92;100682.66;7975888;28;20037;-66
2021/05/08 13:39:26;;;;;;;1.10;1.00;;;;;;;14.83;36.83;100675.22;7981210;28;20037;-65
2021/05/08 13:43:18;;;;;;;3.13;1.30;;;;;;;14.94;36.96;100677.78;7975391;28;20056;-65
2021/05/08 13:47:21;;;;;;;1.20;1.00;;;;;;;15.04;36.99;100677.81;7977025;28;20033;-65
2021/05/08 13:51:12;;;;;;;1.35;1.02;;;;;;;15.08;36.77;100672.13;7978515;28;20041;-64
2021/05/08 13:55:06;;;;;;;4.50;1.20;;;;;;;15.13;36.49;100669.88;7979822;28;20425;-65
2021/05/08 13:58:59;;;;;;;2.15;0.95;;;;;;;15.19;36.67;100657.94;7980434;28;20045;-65
2021/05/08 14:02:52;;;;;;;1.65;1.00;;;;;;;15.21;36.75;100648.88;7976796;28;20042;-65
2021/05/08 14:06:45;;;;;;;3.53;1.08;;;;;;;15.31;36.44;100648.94;7973967;28;20437;-66
2021/05/08 14:10:37;;;;;;;2.40;0.98;;;;;;;15.39;36.51;100648.22;7978995;28;20036;-66
2021/05/08 14:14:31;;;;;;;2.22;0.90;;;;;;;15.41;36.35;100635.72;7966187;28;20548;-66
2021/05/08 14:18:24;;;;;;;1.83;1.05;;;;;;;15.40;36.48;100637.53;7968001;28;20041;-66
2021/05/08 14:22:20;;;;;;;2.92;0.82;;;;;;;15.47;36.42;100633.34;7974633;28;21123;-66
2021/05/08 14:26:13;;;;;;;4.15;1.15;;;;;;;15.50;36.42;100627.75;7969300;28;20041;-67
2021/05/08 14:30:12;;;;;;;1.67;1.13;;;;;;;15.53;36.39;100627.50;7970867;28;20043;-66
2021/05/08 14:34:08;;;;;;;4.43;1.00;;;;;;;15.55;36.31;100628.19;7971446;28;20671;-68
2021/05/08 14:38:01;;;;;;;1.58;0.73;;;;;;;15.58;36.23;100619.97;7982410;28;20044;-66
2021/05/08 14:41:57;;;;;;;1.13;0.70;;;;;;;15.57;36.37;100607.72;7982155;28;20048;-67
2021/05/08 14:45:49;;;;;;;1.20;0.90;;;;;;;15.59;36.87;100607.56;7980661;28;20116;-66
2021/05/08 14:49:42;;;;;;;3.88;1.02;;;;;;;15.61;36.84;100606.47;7973694;28;20053;-67
2021/05/08 14:53:34;;;;;;;2.00;0.85;;;;;;;15.63;36.86;100603.66;7976404;28;20037;-67
2021/05/08 14:57:26;;;;;;;1.10;0.80;;;;;;;15.64;36.91;100592.94;7976712;28;20049;-67
2021/05/08 15:01:18;;;;;;;3.05;1.02;;;;;;;15.64;36.96;100576.22;7970707;28;20053;-65
2021/05/08 15:05:11;;;;;;;2.47;1.00;;;;;;;15.73;36.92;100572.72;7981692;28;20037;-67
2021/05/08 15:09:03;;;;;;;2.90;1.00;;;;;;;15.79;37.02;100579.28;7974731;28;20123;-67
2021/05/08 15:12:55;;;;;;;2.70;0.80;;;;;;;15.85;36.86;100578.69;7979537;28;20052;-67
2021/05/08 15:16:51;;;;;;;1.65;0.70;;;;;;;15.88;36.97;100567.78;7966128;28;20037;-67
2021/05/08 15:20:43;;;;;;;0.80;0.80;;;;;;;15.93;36.98;100570.88;7978280;28;20037;-66
2021/05/08 15:24:43;;;;;;;1.13;0.90;;;;;;;15.96;37.08;100560.81;7974917;28;20033;-68
2021/05/08 15:28:35;;;;;;;0.90;0.80;;;;;;;16.02;37.12;100556.75;7975919;28;20040;-66
2021/05/08 15:32:29;;;;;;;0.70;0.70;;;;;;;16.05;37.17;100549.34;7975752;28;20037;-66
2021/05/08 15:36:21;;;;;;;2.65;1.00;;;;;;;16.10;37.10;100552.41;7972043;28;20129;-67
2021/05/08 15:40:16;;;;;;;1.83;1.23;;;;;;;16.08;37.14;100542.91;7972112;28;20041;-75
2021/05/08 15:44:08;;;;;;;1.10;1.00;;;;;;;16.06;36.96;100535.13;7970033;28;20107;-75
2021/05/08 15:47:59;;;;;;;1.33;0.75;;;;;;;16.12;37.05;100534.56;7971372;28;20041;-74
2021/05/08 15:51:52;;;;;;;1.42;0.80;;;;;;;16.12;37.18;100523.97;7972506;28;20059;-75
2021/05/08 15:55:49;;;;;;;0.90;0.80;;;;;;;16.22;37.15;100521.28;7966919;28;20057;-77
2021/05/08 15:59:41;;;;;;;1.10;0.82;;;;;;;16.23;37.15;100516.84;7954406;28;20037;-74
2021/05/08 16:03:33;;;;;;;2.70;0.88;;;;;;;16.26;37.25;100513.88;7970304;28;20044;-77
2021/05/08 16:07:25;;;;;;;1.52;0.80;;;;;;;16.30;37.42;100516.09;7970701;28;20125;-72
2021/05/08 16:11:16;;;;;;;1.23;0.80;;;;;;;16.39;37.35;100509.91;7969165;28;20073;-73
2021/05/08 16:15:10;;;;;;;0.75;0.75;;;;;;;16.43;37.35;100513.94;7970543;28;20103;-75
2021/05/08 16:19:04;;;;;;;2.83;0.95;;;;;;;16.41;37.53;100507.94;7972924;28;20037;-75
2021/05/08 16:22:56;;;;;;;2.92;1.10;;;;;;;16.43;37.54;100506.00;7969308;28;20025;-75
2021/05/08 16:26:48;;;;;;;1.25;0.88;;;;;;;16.48;37.57;100516.16;7970792;28;20032;-75
2021/05/08 16:30:40;;;;;;;1.58;0.95;;;;;;;16.42;37.48;100500.81;7973159;28;20049;-73
2021/05/08 16:34:32;;;;;;;6.50;1.20;;;;;;;16.41;37.62;100504.47;7976497;28;20570;-65
2021/05/08 16:38:24;;;;;;;1.02;0.90;;;;;;;16.38;37.66;100500.28;7979002;28;20044;-66
2021/05/08 16:42:19;;;;;;;3.95;0.85;;;;;;;16.36;37.67;100489.00;7977305;28;20048;-65
2021/05/08 16:46:11;;;;;;;2.60;1.10;;;;;;;16.34;37.81;100492.78;7974896;28;20125;-65
2021/05/08 16:50:06;;;;;;;2.28;0.90;;;;;;;16.33;37.86;100481.34;7972802;28;20029;-71
2021/05/08 16:53:57;;;;;;;0.60;0.60;;;;;;;16.31;38.00;100487.78;7968436;28;20072;-66
2021/05/08 16:57:49;;;;;;;2.35;1.05;;;;;;;16.29;38.17;100482.63;7975107;28;20123;-65
2021/05/08 17:01:43;;;;;;;3.20;1.40;;;;;;;16.26;38.29;100480.25;7974284;28;20037;-66
2021/05/08 17:05:35;;;;;;;1.08;0.90;;;;;;;16.26;38.33;100482.06;7979496;28;20029;-69
2021/05/08 17:09:27;;;;;;;2.63;1.15;;;;;;;16.25;38.47;100477.75;7979759;28;20048;-69
2021/05/08 17:13:21;;;;;;;5.00;1.52;;;;;;;16.21;38.55;100474.56;7977684;28;20051;-76
2021/05/08 17:17:15;;;;;;;0.85;0.80;;;;;;;16.24;38.60;100471.66;7991651;28;20584;-73
2021/05/08 17:21:12;;;;;;;1.83;1.05;;;;;;;16.22;38.71;100464.81;7974210;28;20033;-74
2021/05/08 17:25:08;;;;;;;1.98;0.88;;;;;;;16.23;38.70;100462.03;7990683;28;20038;-75
2021/05/08 17:29:00;;;;;;;0.88;0.88;;;;;;;16.23;38.91;100466.47;7972624;28;20063;-74
2021/05/08 17:32:54;;;;;;;1.33;0.90;;;;;;;16.23;38.91;100469.97;7970733;28;20127;-76
2021/05/08 17:36:46;;;;;;;2.47;1.15;;;;;;;16.25;39.10;100465.34;7973816;28;20041;-74
2021/05/08 17:40:38;;;;;;;8.63;1.17;;;;;;;16.21;39.02;100441.94;7976502;28;20624;-76
2021/05/08 17:44:31;;;;;;;6.07;1.33;;;;;;;16.26;39.22;100450.28;7970696;28;20029;-74
2021/05/08 17:48:22;;;;;;;1.08;0.90;;;;;;;16.26;39.20;100450.28;7990113;28;20044;-74
2021/05/08 17:52:13;;;;;;;1.70;0.80;;;;;;;16.25;39.23;100444.13;7975593;28;20037;-76
2021/05/08 17:56:05;;;;;;;1.08;0.80;;;;;;;16.24;39.53;100446.94;7971956;28;20048;-72
2021/05/08 17:59:56;;;;;;;1.60;1.10;;;;;;;16.22;39.50;100443.59;7958553;28;20048;-71
2021/05/08 18:03:48;;;;;;;6.35;1.05;;;;;;;16.17;39.52;100449.34;7975659;28;20091;-75
2021/05/08 18:07:42;;;;;;;1.35;0.80;;;;;;;16.10;39.42;100445.59;7973379;28;20040;-73
2021/05/08 18:11:37;;;;;;;1.30;1.02;;;;;;;16.03;39.60;100445.34;7974951;28;20103;-75
2021/05/08 18:15:29;;;;;;;1.85;1.27;;;;;;;15.98;39.50;100457.38;7970034;28;20049;-75